Time;durP1;ratioP1;P1;durP2;ratioP2;P2;SDS_P1;SDS_P2;PMS_P1;PMS_P2;Temp;Humidity;BMP_temperature;BMP_pressure;BME280_temperature;BME280_humidity;BME280_pressure;Samples;Min_cycle;Max_cycle;Signal;HPM_P1;HPM_P2
2021/07/02 00:00:29;;;;;;;7.55;5.10;;;19.90;92.70;;;;;;4992446;28;20084;-84
2021/07/02 00:02:55;;;;;;;11.65;5.35;;;19.90;92.80;;;;;;4993356;28;20023;-83
2021/07/02 00:05:21;;;;;;;7.13;5.55;;;19.90;92.70;;;;;;4993449;28;20441;-83
2021/07/02 00:07:47;;;;;;;5.45;4.68;;;19.90;92.70;;;;;;4993520;28;20093;-84
2021/07/02 00:10:12;;;;;;;6.60;5.68;;;19.90;92.50;;;;;;4993482;28;20092;-83
2021/07/02 00:12:39;;;;;;;8.73;5.60;;;19.90;92.50;;;;;;4993326;28;20053;-84
2021/07/02 00:15:05;;;;;;;8.50;5.45;;;19.90;92.70;;;;;;4994403;28;20432;-83
2021/07/02 00:17:31;;;;;;;5.72;5.13;;;19.80;92.70;;;;;;4983671;28;20027;-83
2021/07/02 00:19:57;;;;;;;7.78;5.57;;;19.80;92.80;;;;;;4988873;28;20117;-84
2021/07/02 00:22:22;;;;;;;6.90;6.05;;;19.80;92.90;;;;;;4996862;28;20030;-78
2021/07/02 00:24:48;;;;;;;11.90;6.00;;;19.80;92.90;;;;;;4996781;28;20034;-80
2021/07/02 00:27:14;;;;;;;7.55;5.68;;;19.80;92.90;;;;;;4997148;28;20014;-79
2021/07/02 00:29:40;;;;;;;6.05;5.15;;;19.70;92.80;;;;;;4996546;28;20026;-79
2021/07/02 00:32:06;;;;;;;6.38;5.63;;;19.70;92.90;;;;;;4995054;28;20403;-80
2021/07/02 00:34:32;;;;;;;6.15;5.15;;;19.70;93.00;;;;;;4996408;28;20026;-79
2021/07/02 00:36:57;;;;;;;7.95;5.88;;;19.60;93.20;;;;;;4996044;28;20074;-79
2021/07/02 00:39:23;;;;;;;8.02;5.45;;;19.50;93.30;;;;;;4996197;28;20105;-78
2021/07/02 00:41:49;;;;;;;6.05;5.40;;;19.40;93.50;;;;;;4996297;28;20057;-78
2021/07/02 00:44:15;;;;;;;6.70;5.40;;;19.30;93.60;;;;;;4994051;28;20431;-80
2021/07/02 00:46:41;;;;;;;7.82;5.35;;;19.30;93.80;;;;;;4996046;28;20038;-79
2021/07/02 00:49:07;;;;;;;6.05;5.45;;;19.30;93.90;;;;;;4993277;28;20057;-79
2021/07/02 00:51:35;;;;;;;7.30;5.70;;;19.20;93.90;;;;;;4996113;28;20046;-79
2021/07/02 00:54:01;;;;;;;8.00;5.30;;;19.30;94.10;;;;;;4996473;28;20026;-80
2021/07/02 00:56:28;;;;;;;6.53;5.10;;;19.20;94.00;;;;;;4996476;28;20562;-79
2021/07/02 00:58:53;;;;;;;6.00;4.90;;;19.20;94.00;;;;;;4994622;28;20137;-79
2021/07/02 01:01:19;;;;;;;7.22;5.35;;;19.20;94.50;;;;;;4996051;28;20105;-79
2021/07/02 01:03:49;;;;;;;7.30;5.30;;;19.20;94.10;;;;;;4996185;28;20156;-79
2021/07/02 01:06:16;;;;;;;8.18;5.55;;;19.20;94.20;;;;;;4996286;28;20026;-80
2021/07/02 01:08:43;;;;;;;8.35;5.28;;;19.10;94.20;;;;;;4996244;28;20015;-80
2021/07/02 01:11:09;;;;;;;7.50;5.47;;;19.10;94.20;;;;;;4996134;28;20128;-80
2021/07/02 01:13:35;;;;;;;5.70;5.20;;;19.10;94.20;;;;;;4996366;28;20097;-79
2021/07/02 01:16:01;;;;;;;7.07;5.60;;;19.20;94.20;;;;;;4996057;28;20106;-80
2021/07/02 01:18:27;;;;;;;8.10;6.03;;;19.20;94.20;;;;;;4995691;28;20048;-81
2021/07/02 01:20:54;;;;;;;8.35;6.00;;;19.20;94.10;;;;;;4996028;28;20023;-79
2021/07/02 01:23:20;;;;;;;5.90;5.25;;;19.30;94.10;;;;;;4995593;28;20126;-80
2021/07/02 01:25:47;;;;;;;6.85;6.15;;;19.30;94.00;;;;;;4995957;28;20117;-78
2021/07/02 01:28:15;;;;;;;6.70;6.10;;;19.40;93.90;;;;;;4995709;28;20077;-79
2021/07/02 01:30:41;;;;;;;8.27;5.38;;;19.40;93.80;;;;;;4994415;28;20033;-79
2021/07/02 01:33:12;;;;;;;6.97;5.17;;;19.40;93.80;;;;;;4994467;28;20060;-80
2021/07/02 01:35:38;;;;;;;7.10;5.38;;;19.40;93.70;;;;;;4995367;28;20483;-79
2021/07/02 01:38:05;;;;;;;7.10;6.37;;;19.40;93.70;;;;;;4994233;28;20049;-80
2021/07/02 01:40:32;;;;;;;10.33;6.20;;;19.40;93.60;;;;;;4995639;28;20026;-79
2021/07/02 01:42:59;;;;;;;9.38;6.15;;;19.40;93.60;;;;;;4995484;28;20064;-79
2021/07/02 01:45:25;;;;;;;8.68;6.20;;;19.40;93.50;;;;;;4994023;28;20031;-78
2021/07/02 01:47:51;;;;;;;7.60;6.70;;;19.50;93.60;;;;;;4994654;28;20025;-78
2021/07/02 01:50:18;;;;;;;7.43;6.50;;;19.50;93.50;;;;;;4993569;28;20069;-78
2021/07/02 01:52:44;;;;;;;8.77;6.47;;;19.50;93.60;;;;;;4995303;28;20132;-78
2021/07/02 01:55:10;;;;;;;9.07;7.40;;;19.50;93.50;;;;;;4994927;28;20027;-80
2021/07/02 01:57:36;;;;;;;8.30;7.32;;;19.60;93.30;;;;;;4995366;28;20388;-80
2021/07/02 02:00:04;;;;;;;9.27;6.97;;;19.70;93.30;;;;;;4995077;28;20022;-80
2021/07/02 02:02:29;;;;;;;8.38;7.53;;;19.70;93.10;;;;;;4994665;28;20023;-80
2021/07/02 02:04:56;;;;;;;8.52;7.53;;;19.70;93.00;;;;;;4995052;28;20406;-79
2021/07/02 02:07:22;;;;;;;10.63;8.07;;;19.70;93.00;;;;;;4994857;28;20133;-80
2021/07/02 02:09:48;;;;;;;12.82;8.70;;;19.80;92.80;;;;;;4994977;28;20072;-79
2021/07/02 02:12:14;;;;;;;12.80;8.95;;;19.80;92.60;;;;;;4994655;28;20518;-80
2021/07/02 02:14:40;;;;;;;11.07;8.48;;;19.80;92.70;;;;;;4994878;28;20029;-80
2021/07/02 02:17:06;;;;;;;13.02;8.88;;;19.70;92.70;;;;;;4994729;28;20400;-79
2021/07/02 02:19:32;;;;;;;12.93;8.73;;;19.70;92.80;;;;;;4994744;28;20026;-81
2021/07/02 02:21:58;;;;;;;9.48;7.75;;;19.70;93.10;;;;;;4994777;28;20022;-79
2021/07/02 02:24:24;;;;;;;11.43;7.97;;;19.70;92.70;;;;;;4994638;28;20400;-80
2021/07/02 02:26:49;;;;;;;11.27;8.82;;;19.70;92.80;;;;;;4995222;28;20023;-79
2021/07/02 02:29:15;;;;;;;8.93;8.02;;;19.70;92.70;;;;;;4993688;28;20387;-79
2021/07/02 02:31:41;;;;;;;10.43;9.27;;;19.80;92.50;;;;;;4980457;28;20023;-80
2021/07/02 02:34:07;;;;;;;13.07;10.02;;;19.90;92.40;;;;;;4994540;28;20041;-80
2021/07/02 02:36:33;;;;;;;10.35;9.25;;;19.80;92.40;;;;;;4994354;28;20484;-81
2021/07/02 02:38:59;;;;;;;12.88;10.85;;;19.80;92.30;;;;;;4994328;28;20076;-79
2021/07/02 02:41:25;;;;;;;15.25;10.18;;;19.90;92.40;;;;;;4994128;28;20018;-79
2021/07/02 02:43:51;;;;;;;12.82;9.23;;;19.70;92.60;;;;;;4993675;28;20027;-80
2021/07/02 02:46:16;;;;;;;11.02;10.00;;;19.70;92.70;;;;;;4989097;28;20050;-79
2021/07/02 02:48:42;;;;;;;11.93;10.63;;;19.70;92.80;;;;;;4994318;28;20480;-82
2021/07/02 02:51:08;;;;;;;10.15;8.95;;;19.70;92.80;;;;;;4994299;28;20033;-80
2021/07/02 02:53:34;;;;;;;10.73;8.20;;;19.80;92.70;;;;;;4994017;28;20026;-81
2021/07/02 02:56:00;;;;;;;10.80;8.02;;;19.80;92.50;;;;;;4994548;28;20019;-80
2021/07/02 02:58:25;;;;;;;9.70;7.75;;;19.80;92.60;;;;;;4995499;28;20124;-80
2021/07/02 03:00:51;;;;;;;10.25;8.85;;;19.80;92.40;;;;;;4992771;28;20537;-78
2021/07/02 03:03:20;;;;;;;11.55;7.43;;;19.80;92.40;;;;;;4994151;28;20042;-80
2021/07/02 03:05:47;;;;;;;12.23;8.40;;;19.80;92.30;;;;;;4994138;28;20419;-80
2021/07/02 03:08:12;;;;;;;11.15;8.23;;;19.70;92.20;;;;;;4993946;28;20054;-79
2021/07/02 03:10:38;;;;;;;10.07;8.07;;;19.70;92.10;;;;;;4993701;28;20023;-78
2021/07/02 03:13:04;;;;;;;9.50;8.48;;;19.70;92.20;;;;;;4993975;28;20507;-80
2021/07/02 03:15:30;;;;;;;10.40;7.97;;;19.60;92.30;;;;;;4992706;28;20073;-80
2021/07/02 03:17:59;;;;;;;12.55;8.50;;;19.60;92.40;;;;;;4994014;28;20084;-79
2021/07/02 03:20:25;;;;;;;11.13;9.18;;;19.70;92.40;;;;;;4993636;28;20034;-80
2021/07/02 03:22:51;;;;;;;9.75;8.75;;;19.80;92.20;;;;;;4993626;28;20329;-80
2021/07/02 03:25:17;;;;;;;13.93;8.90;;;19.80;92.00;;;;;;4993706;28;20034;-80
2021/07/02 03:27:43;;;;;;;14.45;9.18;;;19.80;92.10;;;;;;4993776;28;20030;-80
2021/07/02 03:30:11;;;;;;;9.50;7.93;;;19.80;92.30;;;;;;4993913;28;20034;-81
2021/07/02 03:32:37;;;;;;;11.13;7.95;;;19.80;92.30;;;;;;4993379;28;20033;-81
2021/07/02 03:35:05;;;;;;;13.55;8.38;;;19.80;92.20;;;;;;4993233;28;20027;-80
2021/07/02 03:37:31;;;;;;;9.70;8.10;;;19.80;92.20;;;;;;4992763;28;20054;-80
2021/07/02 03:39:57;;;;;;;11.85;8.88;;;19.80;92.10;;;;;;4993152;28;20050;-81
2021/07/02 03:42:23;;;;;;;9.65;8.38;;;19.90;92.00;;;;;;4993651;28;20026;-80
2021/07/02 03:44:49;;;;;;;9.55;8.55;;;19.90;92.00;;;;;;4987642;28;20066;-79
2021/07/02 03:47:15;;;;;;;9.43;8.43;;;20.00;92.00;;;;;;4985358;28;20392;-80
2021/07/02 03:49:41;;;;;;;9.88;8.88;;;20.00;91.80;;;;;;4992927;28;20070;-80
2021/07/02 03:52:07;;;;;;;10.23;7.60;;;20.10;91.70;;;;;;4992966;28;20116;-80
2021/07/02 03:54:33;;;;;;;11.10;7.43;;;20.10;91.50;;;;;;4992827;28;20026;-80
2021/07/02 03:57:11;;;;;;;12.18;7.18;;;20.10;91.30;;;;;;4992920;28;20015;-80
2021/07/02 03:59:45;;;;;;;8.45;7.03;;;20.20;91.20;;;;;;4993224;28;20042;-80
2021/07/02 04:02:12;;;;;;;5.93;5.30;;;20.20;90.90;;;;;;4993488;28;20105;-80
2021/07/02 04:04:38;;;;;;;8.03;5.37;;;20.20;90.60;;;;;;4993112;28;20037;-80
2021/07/02 04:07:05;;;;;;;6.97;6.27;;;20.30;90.60;;;;;;4992838;28;20260;-79
2021/07/02 04:09:31;;;;;;;7.47;5.57;;;20.50;90.30;;;;;;4993061;28;20736;-78
2021/07/02 04:11:58;;;;;;;6.82;5.40;;;20.70;90.10;;;;;;4992605;28;20053;-80
2021/07/02 04:14:24;;;;;;;6.95;5.40;;;20.70;89.70;;;;;;4992764;28;20022;-80
2021/07/02 04:16:50;;;;;;;6.47;4.88;;;20.80;88.90;;;;;;4992570;28;20038;-78
2021/07/02 04:19:16;;;;;;;8.98;5.45;;;20.80;88.80;;;;;;4991296;28;20484;-79
2021/07/02 04:21:42;;;;;;;6.68;5.97;;;20.90;88.40;;;;;;4992513;28;20066;-80
2021/07/02 04:24:08;;;;;;;8.70;6.55;;;21.10;87.70;;;;;;4992721;28;20022;-79
2021/07/02 04:26:33;;;;;;;7.07;6.38;;;21.20;87.60;;;;;;4992645;28;20097;-79
2021/07/02 04:28:59;;;;;;;8.70;7.75;;;21.30;86.60;;;;;;4992436;28;20510;-81
2021/07/02 04:31:25;;;;;;;7.35;6.15;;;21.30;86.30;;;;;;4992889;28;20030;-79
2021/07/02 04:33:51;;;;;;;5.97;5.25;;;21.30;86.30;;;;;;4991207;28;20041;-79
2021/07/02 04:36:17;;;;;;;8.02;5.80;;;21.30;86.20;;;;;;4991175;28;20022;-79
2021/07/02 04:38:43;;;;;;;8.63;5.32;;;21.30;86.80;;;;;;4992674;28;20403;-81
2021/07/02 04:41:09;;;;;;;6.85;5.75;;;21.20;85.70;;;;;;4992642;28;20054;-82
2021/07/02 04:43:35;;;;;;;6.87;5.53;;;21.10;86.00;;;;;;4991360;28;20033;-81
2021/07/02 04:46:01;;;;;;;8.30;5.60;;;21.10;86.50;;;;;;4992554;28;20031;-81
2021/07/02 04:48:27;;;;;;;7.53;5.25;;;21.10;86.70;;;;;;4992596;28;20077;-81
2021/07/02 04:50:53;;;;;;;7.65;5.75;;;21.10;86.80;;;;;;4992303;28;20026;-80
2021/07/02 04:53:20;;;;;;;9.10;6.07;;;21.30;86.10;;;;;;4991008;28;20073;-80
2021/07/02 04:55:46;;;;;;;7.32;4.85;;;21.40;85.30;;;;;;4992960;28;20361;-80
2021/07/02 04:58:12;;;;;;;6.75;5.32;;;21.50;84.60;;;;;;4993845;28;20066;-80
2021/07/02 05:00:38;;;;;;;9.45;5.82;;;21.70;84.40;;;;;;4993948;28;20034;-81
2021/07/02 05:03:05;;;;;;;9.13;6.35;;;21.80;83.70;;;;;;4993117;28;20121;-81
2021/07/02 05:05:31;;;;;;;7.85;6.57;;;21.80;83.20;;;;;;4992300;28;20029;-81
2021/07/02 05:07:57;;;;;;;7.70;5.88;;;21.90;83.00;;;;;;4996246;28;20125;-81
2021/07/02 05:10:23;;;;;;;8.45;6.32;;;22.00;82.00;;;;;;4995719;28;20033;-81
2021/07/02 05:12:49;;;;;;;6.18;4.72;;;22.10;81.80;;;;;;4995797;28;20411;-80
2021/07/02 05:15:15;;;;;;;5.72;5.13;;;22.10;81.50;;;;;;4995589;28;20072;-80
2021/07/02 05:17:41;;;;;;;5.30;4.80;;;22.10;81.10;;;;;;4996440;28;20031;-81
2021/07/02 05:20:07;;;;;;;5.97;4.95;;;22.10;81.20;;;;;;4991899;28;20042;-79
2021/07/02 05:22:33;;;;;;;6.80;5.07;;;22.10;80.40;;;;;;4995958;28;20479;-79
2021/07/02 05:24:59;;;;;;;6.25;5.25;;;22.10;80.80;;;;;;4995872;28;20034;-81
2021/07/02 05:27:25;;;;;;;5.53;5.03;;;21.90;81.10;;;;;;4995646;28;20427;-81
2021/07/02 05:29:51;;;;;;;5.63;5.03;;;21.90;81.80;;;;;;4995598;28;20498;-82
2021/07/02 05:32:16;;;;;;;8.13;5.55;;;21.90;81.80;;;;;;4995534;28;20466;-82
2021/07/02 05:34:42;;;;;;;9.32;6.15;;;21.80;81.80;;;;;;4995789;28;20026;-81
2021/07/02 05:37:08;;;;;;;7.68;6.13;;;21.70;82.50;;;;;;4995743;28;20445;-82
2021/07/02 05:39:34;;;;;;;7.35;5.45;;;21.60;83.00;;;;;;4995967;28;20486;-82
2021/07/02 05:42:00;;;;;;;9.43;6.40;;;21.50;83.50;;;;;;4990235;28;20023;-82
2021/07/02 05:44:26;;;;;;;8.32;6.80;;;21.50;83.60;;;;;;4995442;28;20747;-82
2021/07/02 05:46:52;;;;;;;8.13;6.65;;;21.50;83.50;;;;;;4995477;28;20034;-81
2021/07/02 05:49:18;;;;;;;8.85;6.95;;;21.50;83.60;;;;;;4995246;28;20034;-82
2021/07/02 05:51:44;;;;;;;9.27;6.82;;;21.40;83.50;;;;;;4995902;28;20014;-84
2021/07/02 05:54:12;;;;;;;9.63;7.25;;;21.30;83.90;;;;;;4995621;28;20096;-83
2021/07/02 05:56:37;;;;;;;9.23;7.35;;;21.20;84.30;;;;;;4995218;28;20058;-81
2021/07/02 05:59:03;;;;;;;8.93;6.38;;;21.10;84.50;;;;;;4993790;28;20502;-82
2021/07/02 06:01:30;;;;;;;10.68;6.03;;;21.10;84.70;;;;;;4995803;28;20022;-82
2021/07/02 06:03:56;;;;;;;8.95;7.00;;;21.10;85.20;;;;;;4995559;28;20490;-81
2021/07/02 06:06:22;;;;;;;11.10;7.03;;;21.10;85.30;;;;;;4995637;28;20038;-82
2021/07/02 06:08:50;;;;;;;7.95;6.35;;;21.10;85.00;;;;;;4995996;28;20105;-81
2021/07/02 06:11:17;;;;;;;8.43;6.35;;;21.10;85.30;;;;;;4995191;28;20066;-82
2021/07/02 06:13:43;;;;;;;12.17;6.27;;;21.10;84.80;;;;;;4995316;28;20088;-82
2021/07/02 06:16:09;;;;;;;9.95;6.55;;;21.10;84.30;;;;;;4994831;28;20053;-82
2021/07/02 06:18:35;;;;;;;10.18;6.35;;;21.10;84.60;;;;;;4994036;28;20117;-82
2021/07/02 06:21:01;;;;;;;8.43;6.60;;;21.20;84.90;;;;;;4996120;28;20025;-81
2021/07/02 06:23:34;;;;;;;6.57;5.18;;;21.30;84.70;;;;;;4999220;28;20460;-83
2021/07/02 06:26:01;;;;;;;6.85;5.57;;;21.30;83.80;;;;;;4996918;28;20380;-83
2021/07/02 06:28:28;;;;;;;7.53;5.95;;;21.20;83.40;;;;;;4995706;28;20030;-83
2021/07/02 06:30:54;;;;;;;10.48;5.80;;;21.30;83.70;;;;;;4996239;28;20029;-81
2021/07/02 06:33:20;;;;;;;8.02;5.88;;;21.40;83.90;;;;;;4995152;28;20027;-81
2021/07/02 06:35:46;;;;;;;8.98;6.85;;;21.60;82.90;;;;;;4994423;28;20049;-83
2021/07/02 06:38:12;;;;;;;7.88;6.63;;;21.60;82.50;;;;;;4994546;28;20045;-84
2021/07/02 06:40:39;;;;;;;10.00;7.47;;;21.70;82.10;;;;;;4988547;28;20029;-83
2021/07/02 06:43:04;;;;;;;11.50;7.33;;;21.70;82.10;;;;;;4994068;28;20480;-83
2021/07/02 06:45:31;;;;;;;11.52;7.57;;;21.70;82.20;;;;;;4994436;28;20019;-82
2021/07/02 06:48:02;;;;;;;10.77;7.35;;;21.70;82.20;;;;;;4993968;28;20454;-82
2021/07/02 06:50:31;;;;;;;11.25;7.78;;;21.80;82.10;;;;;;4994692;28;20097;-82
2021/07/02 06:52:58;;;;;;;7.63;6.78;;;21.90;81.70;;;;;;4994074;28;20018;-83
2021/07/02 06:55:25;;;;;;;7.57;6.30;;;21.90;81.20;;;;;;4994214;28;20014;-83
2021/07/02 06:57:51;;;;;;;8.13;5.97;;;21.90;80.80;;;;;;4994233;28;20026;-81
2021/07/02 07:00:18;;;;;;;10.27;6.40;;;21.90;81.10;;;;;;4993961;28;20415;-81
2021/07/02 07:02:45;;;;;;;13.07;6.77;;;21.90;81.10;;;;;;4994329;28;20076;-83
2021/07/02 07:05:12;;;;;;;7.70;5.72;;;21.90;81.10;;;;;;4992554;28;20030;-82
2021/07/02 07:07:37;;;;;;;7.05;6.07;;;22.00;80.80;;;;;;4994159;28;20379;-82
2021/07/02 07:10:04;;;;;;;8.75;7.18;;;22.00;80.90;;;;;;4992609;28;20046;-83
2021/07/02 07:12:30;;;;;;;10.25;7.90;;;22.00;80.90;;;;;;4993381;28;20050;-83
2021/07/02 07:14:57;;;;;;;10.13;7.00;;;21.90;81.10;;;;;;4991845;28;20022;-83
2021/07/02 07:17:24;;;;;;;11.23;7.82;;;21.80;81.20;;;;;;4990494;28;20030;-82
2021/07/02 07:19:50;;;;;;;8.98;7.75;;;21.80;80.90;;;;;;4994580;28;20391;-82
2021/07/02 07:22:17;;;;;;;9.23;8.10;;;21.80;81.30;;;;;;4993606;28;20019;-80
2021/07/02 07:24:42;;;;;;;9.73;8.65;;;21.80;80.60;;;;;;4993633;28;20034;-82
2021/07/02 07:27:08;;;;;;;11.85;9.63;;;21.90;80.70;;;;;;4993476;28;20480;-83
2021/07/02 07:29:34;;;;;;;10.02;8.52;;;21.90;80.30;;;;;;4991697;28;20022;-81
2021/07/02 07:32:01;;;;;;;11.75;9.75;;;21.90;79.90;;;;;;4993437;28;20018;-82
2021/07/02 07:37:17;;;;;;;12.10;9.15;;;22.00;80.80;;;;;;4993324;28;20077;-80
2021/07/02 07:39:43;;;;;;;9.75;8.75;;;22.10;80.40;;;;;;4993080;28;20039;-82
2021/07/02 07:42:08;;;;;;;11.60;9.00;;;22.20;80.00;;;;;;4993198;28;20030;-81
2021/07/02 07:44:34;;;;;;;15.55;9.10;;;22.50;79.90;;;;;;4993090;28;20050;-84
2021/07/02 07:47:00;;;;;;;9.98;8.20;;;22.70;79.40;;;;;;4993930;28;20069;-88
2021/07/02 07:49:26;;;;;;;10.15;8.68;;;23.00;77.20;;;;;;4991533;28;20030;-85
2021/07/02 07:54:47;;;;;;;11.50;9.23;;;23.40;74.90;;;;;;4957834;28;20050;-86
2021/07/02 07:57:13;;;;;;;10.68;9.00;;;23.70;74.10;;;;;;4989571;28;20484;-86
2021/07/02 07:59:39;;;;;;;10.48;8.38;;;24.00;73.00;;;;;;4986103;28;20060;-85
2021/07/02 08:02:05;;;;;;;12.57;8.63;;;24.20;71.70;;;;;;4990801;28;20026;-83
2021/07/02 08:04:31;;;;;;;11.10;8.55;;;24.40;71.00;;;;;;4990323;28;20373;-83
2021/07/02 08:06:57;;;;;;;12.77;7.47;;;24.60;70.40;;;;;;4991560;28;20026;-86
2021/07/02 08:09:23;;;;;;;7.78;6.65;;;24.90;69.70;;;;;;4996500;28;20030;-89
2021/07/02 08:11:48;;;;;;;10.95;5.75;;;25.50;67.70;;;;;;4997406;28;20050;-87
2021/07/02 08:14:14;;;;;;;7.45;5.93;;;26.00;65.70;;;;;;4998599;28;20026;-88
2021/07/02 08:16:41;;;;;;;11.70;6.55;;;27.20;62.90;;;;;;4996697;28;20019;-85
2021/07/02 08:19:07;;;;;;;11.73;6.35;;;29.60;58.50;;;;;;4995070;28;20042;-86
2021/07/02 08:21:33;;;;;;;10.30;6.37;;;30.70;54.10;;;;;;4995267;28;20037;-85
2021/07/02 08:23:59;;;;;;;14.40;6.63;;;31.10;52.00;;;;;;4994604;28;20023;-84
2021/07/02 08:26:27;;;;;;;6.20;5.60;;;30.70;51.90;;;;;;4992561;28;20080;-84
2021/07/02 08:31:37;;;;;;;10.23;7.57;;;29.30;53.60;;;;;;4983370;28;20550;-85
2021/07/02 08:34:03;;;;;;;10.33;6.20;;;28.40;55.80;;;;;;4981265;28;21022;-83
2021/07/02 08:36:29;;;;;;;9.20;6.38;;;28.00;57.10;;;;;;4989182;28;20473;-83
2021/07/02 08:38:55;;;;;;;9.77;6.03;;;27.90;57.20;;;;;;4984835;28;20034;-84
2021/07/02 08:41:21;;;;;;;9.73;6.38;;;27.70;57.90;;;;;;4994642;28;20126;-85
2021/07/02 08:43:48;;;;;;;13.73;6.72;;;27.40;59.00;;;;;;4998159;28;20022;-82
2021/07/02 08:46:15;;;;;;;7.10;5.63;;;27.10;59.30;;;;;;4997103;28;20065;-82
2021/07/02 08:48:44;;;;;;;8.57;5.00;;;26.80;60.30;;;;;;4997754;28;20050;-81
2021/07/02 08:51:10;;;;;;;9.80;5.75;;;27.10;60.50;;;;;;4996677;28;20033;-83
2021/07/02 08:53:37;;;;;;;11.15;5.10;;;27.70;59.10;;;;;;4997142;28;20028;-84
2021/07/02 08:56:04;;;;;;;8.98;5.30;;;28.70;56.60;;;;;;4999426;28;20026;-88
2021/07/02 08:58:31;;;;;;;12.02;4.85;;;30.20;54.20;;;;;;4998947;28;20045;-86
2021/07/02 09:00:58;;;;;;;7.10;5.00;;;30.60;51.80;;;;;;5004477;28;20061;-89
2021/07/02 09:03:38;;;;;;;7.30;4.70;;;29.80;51.90;;;;;;5008333;28;20086;-86
2021/07/02 09:06:12;;;;;;;8.05;5.85;;;28.70;53.90;;;;;;5005218;28;20064;-83
2021/07/02 09:08:39;;;;;;;7.57;5.00;;;27.80;56.40;;;;;;4996964;28;20022;-87
2021/07/02 09:11:34;;;;;;;9.13;5.50;;;27.20;58.00;;;;;;4999898;28;20435;-87
2021/07/02 09:14:00;;;;;;;7.60;4.63;;;26.90;59.20;;;;;;5002882;28;20018;-88
2021/07/02 09:16:31;;;;;;;6.53;4.33;;;27.50;58.70;;;;;;5002065;28;20032;-86
2021/07/02 09:18:58;;;;;;;5.05;4.20;;;29.50;54.90;;;;;;4999217;28;20484;-88
2021/07/02 09:21:28;;;;;;;6.80;4.55;;;29.90;51.90;;;;;;5002370;28;20444;-83
2021/07/02 09:23:58;;;;;;;7.00;4.53;;;30.50;51.40;;;;;;4997379;28;20166;-88
2021/07/02 09:26:40;;;;;;;7.53;5.00;;;31.00;49.90;;;;;;4995807;28;20377;-82
2021/07/02 09:29:23;;;;;;;8.27;4.30;;;30.80;49.80;;;;;;4995687;28;20404;-82
2021/07/02 09:32:08;;;;;;;8.48;4.38;;;30.20;50.80;;;;;;4995372;28;20455;-82
2021/07/02 09:34:51;;;;;;;4.97;3.85;;;30.30;50.70;;;;;;4995956;28;20100;-85
2021/07/02 09:37:21;;;;;;;6.85;4.28;;;30.30;50.70;;;;;;4989628;28;20110;-81
2021/07/02 09:39:47;;;;;;;6.10;4.13;;;31.40;50.00;;;;;;4993995;28;20507;-81
2021/07/02 09:42:27;;;;;;;6.23;4.77;;;32.50;46.80;;;;;;4996634;28;20054;-82
2021/07/02 09:45:15;;;;;;;6.53;4.38;;;31.80;47.30;;;;;;4994121;28;20038;-84
2021/07/02 09:47:46;;;;;;;5.78;4.68;;;30.90;48.60;;;;;;4994364;28;20101;-82
2021/07/02 09:50:12;;;;;;;8.20;5.25;;;29.90;49.90;;;;;;4995873;28;20472;-83
2021/07/02 09:52:46;;;;;;;5.88;4.63;;;28.80;51.70;;;;;;4993913;28;20494;-82
2021/07/02 09:55:14;;;;;;;8.35;6.60;;;;;;;;;;4995149;28;20376;-83
2021/07/02 09:57:39;;;;;;;8.55;6.82;;;27.90;53.80;;;;;;4994344;28;20035;-84
2021/07/02 10:00:10;;;;;;;8.95;5.65;;;26.80;57.70;;;;;;4994770;28;20076;-82
2021/07/02 10:02:37;;;;;;;9.88;5.60;;;26.30;59.10;;;;;;4994603;28;20711;-83
2021/07/02 10:05:04;;;;;;;7.88;6.05;;;26.00;60.60;;;;;;4995236;28;20030;-83
2021/07/02 10:07:30;;;;;;;7.05;5.53;;;25.90;61.40;;;;;;4995554;28;20372;-84
2021/07/02 10:09:56;;;;;;;9.20;5.07;;;27.20;60.00;;;;;;4994113;28;20026;-84
2021/07/02 10:12:23;;;;;;;8.13;5.03;;;29.60;55.10;;;;;;4995619;28;20034;-81
2021/07/02 10:14:50;;;;;;;5.10;4.60;;;31.70;50.30;;;;;;4996203;28;20036;-84
2021/07/02 10:17:19;;;;;;;6.93;4.53;;;33.50;46.20;;;;;;4995254;28;20041;-84
2021/07/02 10:19:48;;;;;;;6.00;5.07;;;33.50;43.80;;;;;;4998992;28;20034;-87
2021/07/02 10:22:19;;;;;;;5.93;5.15;;;32.80;44.90;;;;;;5001185;28;20026;-83
2021/07/02 10:24:50;;;;;;;6.60;5.45;;;32.00;45.70;;;;;;4995927;28;20022;-82
2021/07/02 10:27:16;;;;;;;8.88;4.93;;;32.00;46.80;;;;;;4996535;28;20062;-85
2021/07/02 10:29:44;;;;;;;7.47;6.27;;;32.50;45.60;;;;;;4996784;28;20018;-82
2021/07/02 10:32:12;;;;;;;5.65;5.05;;;33.20;44.60;;;;;;4994739;28;20031;-86
2021/07/02 10:34:39;;;;;;;5.05;4.55;;;33.00;44.80;;;;;;4994978;28;20018;-86
2021/07/02 10:37:05;;;;;;;6.45;4.47;;;32.30;45.80;;;;;;4997285;28;20081;-84
2021/07/02 10:39:36;;;;;;;6.53;5.47;;;31.80;46.60;;;;;;4984449;28;20044;-86
2021/07/02 10:42:13;;;;;;;7.20;4.88;;;31.30;47.50;;;;;;4999067;28;20026;-84
2021/07/02 10:44:54;;;;;;;8.13;5.47;;;30.70;48.40;;;;;;4996116;28;20026;-86
2021/07/02 10:47:24;;;;;;;10.35;6.40;;;30.00;49.90;;;;;;4996122;28;20034;-85
2021/07/02 10:49:51;;;;;;;9.13;7.28;;;29.40;51.20;;;;;;4995741;28;20046;-83
2021/07/02 10:52:17;;;;;;;;;;;29.20;51.70;;;;;;4995954;28;20384;-87
2021/07/02 10:54:44;;;;;;;7.17;5.17;;;28.80;52.10;;;;;;4996266;28;20044;-84
2021/07/02 10:57:14;;;;;;;10.65;6.45;;;28.60;53.50;;;;;;4995151;28;20018;-87
2021/07/02 10:59:45;;;;;;;6.70;5.28;;;28.20;54.10;;;;;;4995057;28;20113;-85
2021/07/02 11:02:18;;;;;;;8.75;6.75;;;27.90;55.30;;;;;;4986864;28;20077;-86
2021/07/02 11:04:49;;;;;;;8.32;6.75;;;27.50;56.00;;;;;;4994320;28;20040;-83
2021/07/02 11:07:15;;;;;;;7.15;4.90;;;27.10;56.30;;;;;;4994309;28;20053;-80
2021/07/02 11:09:55;;;;;;;6.60;5.80;;;26.80;56.90;;;;;;4992113;28;20453;-82
2021/07/02 11:12:25;;;;;;;6.22;5.32;;;26.50;57.80;;;;;;4994413;28;20046;-82
2021/07/02 11:14:54;;;;;;;5.85;5.22;;;26.30;58.40;;;;;;4994151;28;20476;-85
2021/07/02 11:17:36;;;;;;;6.38;5.00;;;26.10;59.40;;;;;;4989647;28;20022;-84
2021/07/02 11:20:05;;;;;;;5.70;5.10;;;26.20;59.80;;;;;;4993533;28;20035;-83
2021/07/02 11:22:35;;;;;;;8.95;5.10;;;26.00;58.90;;;;;;4993431;28;20018;-84
2021/07/02 11:25:05;;;;;;;6.68;5.97;;;26.00;59.40;;;;;;4993552;28;20069;-83
2021/07/02 11:27:46;;;;;;;6.70;4.82;;;25.90;60.20;;;;;;4993507;28;20592;-84
2021/07/02 11:30:34;;;;;;;6.05;4.97;;;25.90;60.60;;;;;;4992873;28;20027;-83
2021/07/02 11:33:10;;;;;;;7.05;4.55;;;25.80;60.70;;;;;;4993508;28;20029;-84
2021/07/02 11:35:41;;;;;;;6.20;5.60;;;25.80;61.00;;;;;;4992310;28;20030;-84
2021/07/02 11:38:23;;;;;;;5.97;5.20;;;25.70;61.50;;;;;;4993888;28;20034;-84
2021/07/02 11:40:53;;;;;;;5.22;4.20;;;25.70;61.70;;;;;;4995442;28;20129;-83
2021/07/02 11:43:23;;;;;;;5.45;4.10;;;25.60;62.00;;;;;;4992225;28;20502;-87
2021/07/02 11:45:54;;;;;;;4.93;3.85;;;25.60;61.10;;;;;;4994522;28;20499;-85
2021/07/02 11:48:22;;;;;;;4.55;3.80;;;25.50;61.00;;;;;;4993257;28;20022;-83
2021/07/02 11:51:00;;;;;;;4.68;4.05;;;25.50;60.40;;;;;;4993782;28;20027;-86
2021/07/02 11:53:37;;;;;;;3.92;3.53;;;25.30;60.90;;;;;;4985501;28;20109;-86
2021/07/02 11:56:08;;;;;;;5.63;4.18;;;25.20;61.50;;;;;;4994136;28;20031;-86
2021/07/02 11:58:36;;;;;;;6.50;5.55;;;25.00;62.10;;;;;;4993790;28;20038;-85
2021/07/02 12:01:07;;;;;;;7.25;4.28;;;25.00;63.10;;;;;;4998080;28;20081;-85
2021/07/02 12:03:33;;;;;;;5.60;4.32;;;25.00;64.00;;;;;;4994153;28;20038;-84
2021/07/02 12:06:02;;;;;;;5.55;3.35;;;25.00;65.10;;;;;;4993683;28;20074;-85
2021/07/02 12:08:30;;;;;;;4.15;3.75;;;24.90;65.30;;;;;;4994152;28;20027;-83
2021/07/02 12:10:59;;;;;;;5.32;3.85;;;24.80;65.10;;;;;;4992079;28;20030;-83
2021/07/02 12:13:26;;;;;;;4.72;3.97;;;24.80;65.30;;;;;;4992718;28;20056;-83
2021/07/02 12:16:01;;;;;;;7.15;4.45;;;24.70;65.30;;;;;;4992194;28;20030;-84
2021/07/02 12:18:28;;;;;;;5.75;3.92;;;24.80;65.60;;;;;;4992764;28;20068;-84
2021/07/02 12:21:02;;;;;;;7.00;4.03;;;24.80;65.20;;;;;;4992942;28;20530;-85
2021/07/02 12:23:30;;;;;;;4.43;3.65;;;25.00;64.90;;;;;;4993382;28;20022;-85
2021/07/02 12:26:22;;;;;;;4.72;3.42;;;25.00;64.10;;;;;;4980369;28;20380;-86
2021/07/02 12:29:10;;;;;;;6.10;4.20;;;25.10;64.00;;;;;;4993813;28;20030;-87
2021/07/02 12:31:38;;;;;;;4.45;3.30;;;25.00;63.50;;;;;;4980341;28;20069;-83
2021/07/02 12:34:12;;;;;;;4.28;3.70;;;24.90;63.70;;;;;;4995353;28;20022;-84
2021/07/02 12:37:04;;;;;;;5.00;3.17;;;24.60;64.30;;;;;;4992532;28;20027;-86
2021/07/02 12:40:03;;;;;;;5.63;4.00;;;24.40;65.20;;;;;;4991969;28;20444;-84
2021/07/02 12:42:34;;;;;;;5.22;3.60;;;24.20;66.00;;;;;;4988576;28;20030;-83
2021/07/02 12:45:03;;;;;;;9.20;3.70;;;24.20;66.10;;;;;;4993458;28;20054;-85
2021/07/02 12:47:31;;;;;;;6.50;3.55;;;24.30;67.10;;;;;;4991715;28;20031;-84
2021/07/02 12:50:01;;;;;;;6.32;3.67;;;24.40;67.40;;;;;;4980265;28;20399;-83
2021/07/02 12:55:04;;;;;;;7.15;3.75;;;24.50;66.10;;;;;;4993431;28;20031;-84
2021/07/02 12:57:41;;;;;;;5.78;3.83;;;24.60;67.10;;;;;;4992818;28;20034;-85
2021/07/02 13:00:33;;;;;;;4.38;2.95;;;24.60;66.40;;;;;;4993455;28;20133;-83